Ana Sayfa
METAR-TAF:

METAR-TAF

Havaalanları :

Esperance, Avustralya

Enlem: 33-41-04S, Boylam: 121-49-22E, yükseklik: 143 m

Güncel hava durumu gözlemi

Rapor saat 05:00 UTC de 49 dakika önce yapıldı.
Rüzgar kuzeybatıdan 14 kt
Sıcaklık 17°C
Nem 63%
Basınç 1009 hPa
Görüş mesafesi 10 km veya daha fazla

METAR: YESP 260500Z AUTO 32014KT 9999 // NCD 17/10 Q1009

Saat: 13:49 (05:49 UTC)


TAF: eksik

4.000'den fazla havaalanı için hava durumu gözlemleri ve tahminleri (METAR ve TAF raporları).

Kullanılabilir istasyonlar harita üzerinde sarı ve kırmızı noktalarla gösterilir.

İstasyonun adını görmek için fareyi noktanın üzerinde gezdirin.

Sonrasında hava gözlem ve tahminlerini görmek için tıklayın.

Haritayı değiştirmek için: yaklaştırmak için siyah artı işaretli yeşil düğmeye ve uzaklaştırmak için de eksi işaretli düğmeye hızla tıklayın; bitişik haritalar için yeşil okları kullanın.


METAR-TAF: